createdAt,value
2018-09-14T00:00:25.804Z,13.26
2018-09-14T00:01:32.279Z,13.22
2018-09-14T00:02:38.520Z,13.17
2018-09-14T00:03:44.902Z,13.14
2018-09-14T00:04:50.766Z,13.14
2018-09-14T00:05:57.615Z,13.15
2018-09-14T00:07:03.963Z,13.12
2018-09-14T00:08:09.834Z,13.09
2018-09-14T00:09:16.665Z,13.07
2018-09-14T00:10:23.026Z,13.05
2018-09-14T00:11:29.379Z,13.05
2018-09-14T00:12:35.749Z,13.06
2018-09-14T00:13:41.594Z,13.09
2018-09-14T00:14:48.434Z,13.09
2018-09-14T00:15:54.311Z,13.12
2018-09-14T00:17:01.142Z,13.10
2018-09-14T00:18:06.999Z,13.07
2018-09-14T00:19:13.344Z,13.03
2018-09-14T00:20:19.687Z,12.99
2018-09-14T00:21:26.538Z,12.98
2018-09-14T00:22:32.871Z,13.03
2018-09-14T00:23:39.226Z,13.10
2018-09-14T00:24:45.578Z,13.16
2018-09-14T00:25:51.910Z,13.25
2018-09-14T00:26:57.772Z,13.34
2018-09-14T00:28:04.621Z,13.43
2018-09-14T00:29:10.476Z,13.49
2018-09-14T00:30:16.836Z,13.55
2018-09-14T00:31:23.668Z,13.60
2018-09-14T00:32:30.039Z,13.65
2018-09-14T00:33:36.406Z,13.67
2018-09-14T00:34:42.753Z,13.73
2018-09-14T00:35:49.092Z,13.78
2018-09-14T00:36:55.443Z,13.80
2018-09-14T00:38:01.800Z,13.83
2018-09-14T00:39:08.281Z,13.85
2018-09-14T00:40:14.514Z,13.87
2018-09-14T00:41:20.374Z,13.88
2018-09-14T00:42:27.229Z,13.90
2018-09-14T00:43:33.112Z,13.88
2018-09-14T00:44:39.448Z,13.88
2018-09-14T00:45:46.311Z,13.90
2018-09-14T00:46:52.669Z,13.89
2018-09-14T00:47:59.520Z,13.89
2018-09-14T00:49:04.890Z,13.92
2018-09-14T00:50:11.246Z,13.92
2018-09-14T00:51:17.613Z,13.92
2018-09-14T00:52:24.456Z,13.92
2018-09-14T00:53:30.824Z,13.89
2018-09-14T00:54:36.700Z,13.92
2018-09-14T00:55:43.552Z,13.94
2018-09-14T00:56:49.924Z,13.94
2018-09-14T00:57:56.281Z,13.95
2018-09-14T00:59:02.157Z,13.97
2018-09-14T01:00:09.007Z,13.97
2018-09-14T01:01:15.375Z,13.98
2018-09-14T01:02:21.734Z,13.98
2018-09-14T01:03:27.624Z,13.99
2018-09-14T01:04:34.464Z,14.01
2018-09-14T01:05:40.824Z,14.02
2018-09-14T01:06:46.692Z,14.03
2018-09-14T01:07:53.561Z,14.03
2018-09-14T01:08:59.933Z,14.05
2018-09-14T01:10:05.801Z,14.08
2018-09-14T01:11:12.666Z,14.09
2018-09-14T01:12:19.025Z,14.11
2018-09-14T01:13:24.899Z,14.14
2018-09-14T01:14:31.769Z,14.16
2018-09-14T01:15:37.627Z,14.16
2018-09-14T01:16:43.994Z,14.17
2018-09-14T01:17:50.906Z,14.18
2018-09-14T01:18:57.281Z,14.17
2018-09-14T01:20:03.628Z,14.18
2018-09-14T01:21:09.966Z,14.18
2018-09-14T01:22:15.835Z,14.19
2018-09-14T01:23:22.205Z,14.21
2018-09-14T01:24:28.573Z,14.20
2018-09-14T01:25:35.434Z,14.20
2018-09-14T01:26:41.316Z,14.19
2018-09-14T01:27:47.687Z,14.19
2018-09-14T01:28:54.567Z,14.20
2018-09-14T01:30:00.420Z,14.19
2018-09-14T01:31:07.287Z,14.18
2018-09-14T01:32:13.673Z,14.18
2018-09-14T01:33:20.029Z,14.18
2018-09-14T01:34:26.392Z,14.18
2018-09-14T01:35:32.781Z,14.20
2018-09-14T01:36:39.147Z,14.20
2018-09-14T01:37:46.024Z,14.18
2018-09-14T01:38:51.703Z,14.18
2018-09-14T01:39:57.760Z,14.17
2018-09-14T01:41:04.135Z,14.15
2018-09-14T01:42:11.005Z,14.14
2018-09-14T01:43:17.386Z,14.14
2018-09-14T01:44:23.751Z,14.13
2018-09-14T01:45:45.067Z,14.12
2018-09-14T01:46:52.593Z,14.13
2018-09-14T01:47:58.991Z,14.14
2018-09-14T01:49:05.355Z,14.13
2018-09-14T01:50:12.195Z,14.12
2018-09-14T01:51:18.084Z,14.13
2018-09-14T01:52:24.945Z,14.13
2018-09-14T01:53:31.330Z,14.13
2018-09-14T01:54:37.696Z,14.10
2018-09-14T01:55:44.063Z,14.10
2018-09-14T01:56:50.422Z,14.09
2018-09-14T01:57:56.812Z,14.10
2018-09-14T01:59:02.699Z,14.08
2018-09-14T02:00:09.545Z,14.07
2018-09-14T02:01:15.410Z,14.07
2018-09-14T02:02:21.792Z,14.05
2018-09-14T02:03:28.701Z,14.04
2018-09-14T02:04:35.021Z,14.02
2018-09-14T02:05:40.899Z,14.02
2018-09-14T02:06:47.765Z,14.01
2018-09-14T02:07:53.640Z,14.00
2018-09-14T02:09:00.020Z,13.99
2018-09-14T02:10:06.876Z,13.97
2018-09-14T02:11:13.276Z,13.97
2018-09-14T02:12:19.123Z,13.98
2018-09-14T02:13:25.487Z,13.98
2018-09-14T02:14:32.360Z,13.97
2018-09-14T02:15:38.763Z,13.96
2018-09-14T02:16:44.598Z,13.94
2018-09-14T02:17:51.473Z,13.93
2018-09-14T02:18:57.824Z,13.92
2018-09-14T02:20:04.199Z,13.90
2018-09-14T02:21:10.561Z,13.89
2018-09-14T02:22:16.946Z,13.87
2018-09-14T02:23:23.318Z,13.86
2018-09-14T02:24:30.693Z,13.85
2018-09-14T02:25:35.646Z,13.84
2018-09-14T02:26:41.913Z,13.82
2018-09-14T02:27:48.774Z,13.80
2018-09-14T02:28:54.644Z,13.80
2018-09-14T02:30:01.503Z,13.79
2018-09-14T02:31:07.871Z,13.79
2018-09-14T02:32:14.264Z,13.80
2018-09-14T02:33:20.628Z,13.80
2018-09-14T02:34:26.979Z,13.80
2018-09-14T02:35:33.351Z,13.79
2018-09-14T02:36:39.221Z,13.79
2018-09-14T02:37:45.595Z,13.80
2018-09-14T02:38:52.439Z,13.80
2018-09-14T02:39:58.329Z,13.79
2018-09-14T02:41:04.697Z,13.78
2018-09-14T02:42:11.542Z,13.78
2018-09-14T02:43:17.919Z,13.78
2018-09-14T02:44:23.806Z,13.77
2018-09-14T02:45:30.155Z,13.76
2018-09-14T02:46:36.525Z,13.75
2018-09-14T02:47:43.378Z,13.75
2018-09-14T02:48:49.749Z,13.74
2018-09-14T02:49:56.125Z,13.74
2018-09-14T02:51:02.003Z,13.74
2018-09-14T02:52:08.849Z,13.75
2018-09-14T02:53:15.274Z,13.75
2018-09-14T02:54:21.584Z,13.74
2018-09-14T02:55:27.949Z,13.74
2018-09-14T02:56:34.307Z,13.72
2018-09-14T02:57:40.672Z,13.71
2018-09-14T02:58:46.544Z,13.71
2018-09-14T02:59:52.918Z,13.70
2018-09-14T03:00:59.258Z,13.71
2018-09-14T03:02:06.119Z,13.70
2018-09-14T03:03:11.989Z,13.70
2018-09-14T03:04:18.834Z,13.69
2018-09-14T03:05:25.276Z,13.69
2018-09-14T03:06:31.579Z,13.68
2018-09-14T03:07:37.940Z,13.68
2018-09-14T03:08:44.294Z,13.67
2018-09-14T03:09:50.663Z,13.67
2018-09-14T03:10:57.041Z,13.66
2018-09-14T03:12:02.892Z,13.64
2018-09-14T03:13:09.249Z,13.65
2018-09-14T03:14:16.108Z,13.65
2018-09-14T03:15:21.983Z,13.63
2018-09-14T03:16:28.831Z,13.61
2018-09-14T03:17:34.691Z,13.60
2018-09-14T03:18:41.551Z,13.59
2018-09-14T03:19:47.911Z,13.59
2018-09-14T03:20:54.257Z,13.58
2018-09-14T03:22:00.138Z,13.58
2018-09-14T03:23:06.983Z,13.56
2018-09-14T03:24:13.343Z,13.56
2018-09-14T03:25:19.216Z,13.55
2018-09-14T03:26:26.063Z,13.53
2018-09-14T03:27:31.932Z,13.51
2018-09-14T03:28:38.790Z,13.51
2018-09-14T03:29:45.164Z,13.51
2018-09-14T03:30:51.498Z,13.49
2018-09-14T03:31:57.856Z,13.48
2018-09-14T03:33:04.224Z,13.47
2018-09-14T03:34:11.078Z,13.45
2018-09-14T03:35:16.953Z,13.46
2018-09-14T03:36:22.807Z,13.44
2018-09-14T03:37:29.157Z,13.43
2018-09-14T03:38:36.004Z,13.43
2018-09-14T03:39:42.373Z,13.42
2018-09-14T03:40:48.727Z,13.42
2018-09-14T03:41:55.073Z,13.41
2018-09-14T03:43:01.430Z,13.41
2018-09-14T03:44:07.769Z,13.40
2018-09-14T03:45:14.141Z,13.39
2018-09-14T03:46:20.485Z,13.37
2018-09-14T03:47:26.834Z,13.37
2018-09-14T03:48:33.272Z,13.37
2018-09-14T03:49:39.558Z,13.35
2018-09-14T03:50:45.417Z,13.35
2018-09-14T03:51:52.724Z,13.36
2018-09-14T03:52:58.607Z,13.34
2018-09-14T03:54:04.962Z,13.34
2018-09-14T03:55:10.832Z,13.34
2018-09-14T03:56:17.212Z,13.33
2018-09-14T03:57:24.052Z,13.33
2018-09-14T03:58:30.381Z,13.33
2018-09-14T03:59:36.743Z,13.32
2018-09-14T04:00:42.599Z,13.33
2018-09-14T04:01:49.445Z,13.35
2018-09-14T04:02:55.296Z,13.34
2018-09-14T04:04:02.160Z,13.33
2018-09-14T04:05:08.508Z,13.32
2018-09-14T04:06:14.869Z,13.32
2018-09-14T04:07:21.293Z,13.32
2018-09-14T04:08:27.069Z,13.32
2018-09-14T04:09:33.921Z,13.31
2018-09-14T04:10:40.267Z,13.32
2018-09-14T04:11:46.621Z,13.32
2018-09-14T04:12:52.961Z,13.32
2018-09-14T04:13:59.318Z,13.32
2018-09-14T04:15:05.650Z,13.32
2018-09-14T04:16:12.009Z,13.31
2018-09-14T04:17:17.881Z,13.31
2018-09-14T04:18:24.707Z,13.30
2018-09-14T04:19:31.054Z,13.29
2018-09-14T04:20:37.421Z,13.29
2018-09-14T04:21:43.750Z,13.28
2018-09-14T04:22:50.105Z,13.28
2018-09-14T04:23:55.962Z,13.27
2018-09-14T04:25:02.848Z,13.27
2018-09-14T04:26:08.691Z,13.26
2018-09-14T04:27:16.506Z,13.25
2018-09-14T04:28:21.356Z,13.24
2018-09-14T04:29:27.708Z,13.24
2018-09-14T04:30:34.562Z,13.23
2018-09-14T04:31:40.911Z,13.23
2018-09-14T04:32:48.270Z,13.22
2018-09-14T04:33:53.111Z,13.21
2018-09-14T04:34:59.448Z,13.20
2018-09-14T04:36:06.311Z,13.20
2018-09-14T04:37:12.132Z,13.19
2018-09-14T04:38:18.537Z,13.18
2018-09-14T04:39:25.388Z,13.16
2018-09-14T04:40:31.687Z,13.16
2018-09-14T04:41:38.018Z,13.16
2018-09-14T04:42:43.885Z,13.17
2018-09-14T04:43:50.220Z,13.15
2018-09-14T04:44:57.080Z,13.15
2018-09-14T04:46:03.422Z,13.15
2018-09-14T04:47:09.274Z,13.15
2018-09-14T04:48:16.160Z,13.13
2018-09-14T04:49:22.451Z,13.13
2018-09-14T04:50:28.804Z,13.13
2018-09-14T04:51:35.141Z,13.12
2018-09-14T04:52:40.990Z,13.12
2018-09-14T04:53:47.382Z,13.11
2018-09-14T04:54:54.279Z,13.10
2018-09-14T04:56:00.517Z,13.11
2018-09-14T04:57:06.864Z,13.11
2018-09-14T04:58:13.204Z,13.11
2018-09-14T04:59:19.548Z,13.10
2018-09-14T05:00:25.904Z,13.10
2018-09-14T05:01:32.246Z,13.10
2018-09-14T05:02:38.582Z,13.10
2018-09-14T05:03:44.928Z,13.10
2018-09-14T05:04:51.281Z,13.10
2018-09-14T05:05:57.807Z,13.10
2018-09-14T05:07:03.978Z,13.11
2018-09-14T05:08:09.849Z,13.12
2018-09-14T05:09:16.650Z,13.12
2018-09-14T05:10:23.006Z,13.11
2018-09-14T05:11:29.650Z,13.13
2018-09-14T05:12:36.189Z,13.12
2018-09-14T05:13:42.042Z,13.13
2018-09-14T05:14:47.876Z,13.12
2018-09-14T05:15:54.740Z,13.14
2018-09-14T05:17:01.064Z,13.15
2018-09-14T05:18:07.415Z,13.15
2018-09-14T05:19:13.767Z,13.17
2018-09-14T05:20:20.112Z,13.17
2018-09-14T05:21:26.465Z,13.19
2018-09-14T05:22:32.805Z,13.19
2018-09-14T05:23:39.153Z,13.19
2018-09-14T05:24:45.000Z,13.20
2018-09-14T05:25:51.866Z,13.21
2018-09-14T05:26:58.209Z,13.22
2018-09-14T05:28:04.556Z,13.22
2018-09-14T05:29:10.912Z,13.23
2018-09-14T05:30:16.763Z,13.24
2018-09-14T05:31:23.116Z,13.26
2018-09-14T05:32:29.957Z,13.26
2018-09-14T05:33:35.798Z,13.27
2018-09-14T05:34:42.161Z,13.28
2018-09-14T05:35:48.999Z,13.28
2018-09-14T05:36:55.351Z,13.29
2018-09-14T05:38:01.196Z,13.29
2018-09-14T05:39:08.064Z,13.29
2018-09-14T05:40:14.410Z,13.30
2018-09-14T05:41:20.773Z,13.31
2018-09-14T05:42:27.135Z,13.33
2018-09-14T05:43:33.461Z,13.35
2018-09-14T05:44:39.819Z,13.36
2018-09-14T05:45:46.337Z,13.37
2018-09-14T05:46:52.040Z,13.39
2018-09-14T05:47:58.875Z,13.39
2018-09-14T05:49:05.232Z,13.42
2018-09-14T05:50:11.598Z,13.44
2018-09-14T05:51:17.953Z,13.46
2018-09-14T05:52:24.304Z,13.49
2018-09-14T05:53:30.666Z,13.50
2018-09-14T05:54:37.124Z,13.53
2018-09-14T05:55:43.383Z,13.53
2018-09-14T05:56:49.754Z,13.55
2018-09-14T05:57:56.133Z,13.54
2018-09-14T05:59:01.989Z,13.55
2018-09-14T06:00:08.858Z,13.54
2018-09-14T06:01:15.222Z,13.56
2018-09-14T06:02:21.595Z,13.58
2018-09-14T06:03:27.456Z,13.63
2018-09-14T06:04:33.838Z,13.70
2018-09-14T06:05:40.189Z,13.76
2018-09-14T06:06:47.061Z,13.84
2018-09-14T06:07:53.440Z,13.85
2018-09-14T06:08:59.319Z,13.87
2018-09-14T06:10:06.285Z,13.92
2018-09-14T06:11:12.554Z,13.92
2018-09-14T06:12:18.942Z,13.95
2018-09-14T06:13:24.822Z,13.94
2018-09-14T06:14:31.201Z,13.99
2018-09-14T06:15:37.581Z,14.02
2018-09-14T06:16:44.465Z,13.99
2018-09-14T06:17:50.357Z,13.95
2018-09-14T06:18:57.224Z,13.92
2018-09-14T06:20:03.603Z,13.90
2018-09-14T06:21:09.517Z,13.93
2018-09-14T06:22:16.385Z,13.96
2018-09-14T06:23:22.780Z,13.97
2018-09-14T06:24:29.132Z,14.01
2018-09-14T06:25:35.025Z,14.06
2018-09-14T06:26:41.415Z,14.14
2018-09-14T06:27:48.289Z,14.16
2018-09-14T06:28:54.691Z,14.17
2018-09-14T06:30:01.061Z,14.18
2018-09-14T06:31:07.467Z,14.18
2018-09-14T06:32:13.858Z,14.22
2018-09-14T06:33:20.277Z,14.28
2018-09-14T06:34:26.150Z,14.25
2018-09-14T06:35:33.033Z,14.27
2018-09-14T06:36:38.951Z,14.28
2018-09-14T06:37:45.833Z,14.35
2018-09-14T06:38:52.305Z,14.43
2018-09-14T06:39:58.136Z,14.51
2018-09-14T06:41:05.030Z,14.48
2018-09-14T06:42:11.448Z,14.50
2018-09-14T06:43:17.367Z,14.46
2018-09-14T06:44:23.757Z,14.50
2018-09-14T06:45:30.315Z,14.53
2018-09-14T06:46:37.070Z,14.53
2018-09-14T06:47:42.973Z,14.42
2018-09-14T06:48:49.875Z,14.39
2018-09-14T06:49:55.784Z,14.34
2018-09-14T06:51:02.690Z,14.22
2018-09-14T06:52:09.123Z,14.08
2018-09-14T06:53:15.035Z,13.94
2018-09-14T06:54:21.868Z,13.81
2018-09-14T06:55:28.272Z,13.71
2018-09-14T06:56:34.659Z,13.68
2018-09-14T06:57:40.536Z,13.67
2018-09-14T06:58:47.408Z,13.67
2018-09-14T06:59:53.783Z,13.70
2018-09-14T07:01:00.279Z,13.71
2018-09-14T07:02:06.557Z,13.69
2018-09-14T07:03:12.935Z,13.69
2018-09-14T07:04:19.310Z,13.71
2018-09-14T07:05:25.196Z,13.73
2018-09-14T07:06:31.625Z,13.77
2018-09-14T07:07:38.458Z,13.79
2018-09-14T07:08:44.837Z,13.79
2018-09-14T07:09:51.211Z,13.79
2018-09-14T07:10:57.594Z,13.80
2018-09-14T07:12:03.981Z,13.77
2018-09-14T07:13:09.917Z,13.74
2018-09-14T07:14:16.229Z,13.72
2018-09-14T07:15:23.113Z,13.69
2018-09-14T07:16:28.994Z,13.72
2018-09-14T07:17:35.877Z,13.76
2018-09-14T07:18:42.281Z,13.81
2018-09-14T07:19:48.627Z,13.90
2018-09-14T07:20:55.019Z,13.98
2018-09-14T07:22:01.453Z,14.07
2018-09-14T07:23:07.767Z,14.17
2018-09-14T07:24:13.696Z,14.24
2018-09-14T07:25:20.558Z,14.34
2018-09-14T07:26:26.961Z,14.50
2018-09-14T07:27:33.358Z,14.72
2018-09-14T07:28:39.762Z,15.00
2018-09-14T07:29:45.668Z,15.32
2018-09-14T07:30:52.577Z,15.61
2018-09-14T07:31:59.028Z,15.79
2018-09-14T07:33:05.420Z,15.91
2018-09-14T07:34:11.845Z,16.02
2018-09-14T07:35:17.787Z,16.08
2018-09-14T07:36:24.726Z,16.08
2018-09-14T07:37:30.676Z,16.21
2018-09-14T07:38:37.312Z,16.35
2018-09-14T07:39:43.565Z,16.35
2018-09-14T07:40:50.529Z,16.38
2018-09-14T07:41:56.499Z,16.41
2018-09-14T07:43:03.423Z,16.40
2018-09-14T07:44:09.417Z,16.34
2018-09-14T07:45:16.384Z,16.45
2018-09-14T07:46:22.840Z,16.46
2018-09-14T07:47:29.308Z,16.38
2018-09-14T07:48:35.789Z,16.43
2018-09-14T07:49:42.314Z,16.31
2018-09-14T07:50:48.727Z,16.27
2018-09-14T07:51:54.730Z,16.27
2018-09-14T07:53:01.193Z,16.26
2018-09-14T07:54:07.685Z,16.26
2018-09-14T07:55:14.654Z,16.23
2018-09-14T07:56:21.122Z,16.21
2018-09-14T07:57:27.654Z,16.33
2018-09-14T07:58:33.604Z,16.31
2018-09-14T07:59:40.574Z,16.30
2018-09-14T08:00:47.084Z,16.18
2018-09-14T08:01:53.590Z,16.24
2018-09-14T08:03:00.071Z,16.21
2018-09-14T08:04:06.072Z,16.20
2018-09-14T08:05:12.553Z,16.25
2018-09-14T08:06:19.554Z,16.33
2018-09-14T08:07:25.551Z,16.44
2018-09-14T08:08:32.042Z,16.53
2018-09-14T08:09:39.042Z,16.58
2018-09-14T08:10:46.049Z,16.77
2018-09-14T08:11:52.060Z,16.93
2018-09-14T08:12:58.568Z,17.03
2018-09-14T08:14:05.069Z,17.07
2018-09-14T08:15:11.097Z,17.14
2018-09-14T08:16:18.115Z,17.05
2018-09-14T08:17:24.651Z,17.14
2018-09-14T08:18:30.664Z,17.19
2018-09-14T08:19:37.668Z,17.26
2018-09-14T08:20:44.276Z,17.10
2018-09-14T08:21:50.869Z,17.16
2018-09-14T08:22:56.773Z,17.18
2018-09-14T08:24:03.859Z,17.23
2018-09-14T08:25:10.830Z,17.24
2018-09-14T08:26:16.866Z,17.14
2018-09-14T08:27:23.404Z,17.23
2018-09-14T08:28:29.431Z,17.17
2018-09-14T08:29:35.972Z,17.25
2018-09-14T08:30:43.992Z,17.41
2018-09-14T08:31:49.047Z,17.49
2018-09-14T08:32:56.080Z,17.48
2018-09-14T08:34:02.613Z,17.46
2018-09-14T08:35:09.165Z,17.30
2018-09-14T08:36:15.702Z,17.37
2018-09-14T08:37:22.286Z,17.36
2018-09-14T08:38:28.280Z,17.35
2018-09-14T08:39:34.813Z,17.26
2018-09-14T08:40:41.349Z,17.25
2018-09-14T08:41:47.890Z,17.26
2018-09-14T08:42:54.927Z,17.21
2018-09-14T08:44:01.488Z,17.26
2018-09-14T08:45:08.014Z,17.33
2018-09-14T08:46:14.071Z,17.35
2018-09-14T08:47:21.126Z,17.28
2018-09-14T08:48:27.671Z,17.15
2018-09-14T08:49:33.732Z,17.18
2018-09-14T08:50:41.775Z,17.18
2018-09-14T08:51:47.317Z,17.18
2018-09-14T08:52:53.371Z,17.01
2018-09-14T08:53:59.903Z,16.76
2018-09-14T08:55:06.438Z,16.44
2018-09-14T08:56:12.956Z,16.20
2018-09-14T08:57:19.983Z,16.02
2018-09-14T08:58:26.489Z,15.93
2018-09-14T08:59:32.499Z,15.90
2018-09-14T09:00:39.724Z,15.91
2018-09-14T09:01:45.535Z,15.94
2018-09-14T09:02:52.516Z,15.97
2018-09-14T09:03:59.032Z,16.02
2018-09-14T09:05:05.510Z,16.11
2018-09-14T09:06:12.023Z,16.26
2018-09-14T09:07:18.061Z,16.39
2018-09-14T09:08:24.536Z,16.51
2018-09-14T09:09:31.535Z,16.70
2018-09-14T09:10:38.048Z,16.83
2018-09-14T09:11:44.563Z,16.97
2018-09-14T09:12:51.084Z,17.17
2018-09-14T09:13:57.602Z,17.17
2018-09-14T09:15:04.629Z,17.21
2018-09-14T09:16:10.149Z,17.15
2018-09-14T09:17:17.176Z,17.14
2018-09-14T09:18:23.719Z,17.09
2018-09-14T09:19:30.341Z,17.09
2018-09-14T09:20:36.752Z,17.06
2018-09-14T09:21:42.789Z,17.08
2018-09-14T09:22:49.318Z,17.11
2018-09-14T09:23:56.330Z,17.11
2018-09-14T09:25:02.391Z,17.16
2018-09-14T09:26:09.425Z,17.28
2018-09-14T09:27:17.820Z,17.42
2018-09-14T09:28:22.505Z,17.62
2018-09-14T09:29:29.067Z,17.78
2018-09-14T09:30:35.566Z,17.85
2018-09-14T09:31:42.142Z,17.94
2018-09-14T09:32:48.286Z,18.04
2018-09-14T09:33:54.743Z,18.26
2018-09-14T09:35:01.782Z,18.22
2018-09-14T09:36:08.343Z,18.14
2018-09-14T09:37:14.882Z,18.27
2018-09-14T09:38:21.449Z,18.36
2018-09-14T09:39:27.511Z,18.39
2018-09-14T09:40:34.572Z,18.35
2018-09-14T09:41:40.637Z,18.21
2018-09-14T09:42:47.217Z,18.01
2018-09-14T09:43:53.770Z,17.82
2018-09-14T09:45:00.820Z,17.69
2018-09-14T09:46:06.881Z,17.75
2018-09-14T09:47:13.438Z,17.88
2018-09-14T09:48:20.499Z,17.92
2018-09-14T09:49:26.567Z,17.95
2018-09-14T09:50:34.091Z,18.01
2018-09-14T09:51:41.053Z,18.09
2018-09-14T09:52:47.229Z,18.24
2018-09-14T09:53:55.776Z,18.33
2018-09-14T09:54:59.915Z,18.29
2018-09-14T09:56:06.502Z,18.14
2018-09-14T09:57:12.568Z,18.15
2018-09-14T09:58:19.149Z,18.25
2018-09-14T09:59:25.743Z,18.52
2018-09-14T10:00:32.348Z,18.79
2018-09-14T10:01:39.467Z,19.13
2018-09-14T10:02:46.067Z,19.48
2018-09-14T10:03:53.717Z,19.85
2018-09-14T10:04:59.342Z,20.15
2018-09-14T10:06:05.984Z,20.33
2018-09-14T10:07:12.136Z,20.24
2018-09-14T10:08:19.283Z,20.21
2018-09-14T10:09:25.931Z,20.27
2018-09-14T10:10:32.096Z,20.22
2018-09-14T10:11:39.260Z,20.24
2018-09-14T10:12:45.920Z,20.28
2018-09-14T10:13:52.100Z,20.36
2018-09-14T10:14:59.273Z,20.53
2018-09-14T10:16:05.952Z,20.74
2018-09-14T10:17:12.144Z,20.93
2018-09-14T10:18:19.325Z,21.05
2018-09-14T10:19:26.019Z,21.06
2018-09-14T10:20:32.228Z,21.04
2018-09-14T10:21:38.902Z,21.02
2018-09-14T10:22:45.595Z,21.02
2018-09-14T10:23:52.777Z,21.03
2018-09-14T10:24:59.462Z,20.99
2018-09-14T10:26:05.711Z,20.99
2018-09-14T10:27:13.459Z,20.98
2018-09-14T10:28:19.547Z,20.97
2018-09-14T10:29:26.268Z,21.12
2018-09-14T10:30:32.947Z,21.42
2018-09-14T10:31:39.169Z,21.50
2018-09-14T10:33:52.632Z,21.68
2018-09-14T10:34:59.343Z,21.85
2018-09-14T10:36:06.053Z,21.92
2018-09-14T10:37:14.306Z,22.01
2018-09-14T10:38:20.014Z,22.26
2018-09-14T10:39:26.762Z,22.61
2018-09-14T10:40:33.491Z,22.87
2018-09-14T10:41:40.281Z,23.11
2018-09-14T10:42:46.603Z,23.44
2018-09-14T10:43:53.295Z,23.69
2018-09-14T10:45:00.555Z,23.73
2018-09-14T10:46:07.837Z,23.81
2018-09-14T10:47:14.122Z,23.87
2018-09-14T10:48:20.412Z,23.91
2018-09-14T10:49:27.218Z,23.80
2018-09-14T10:50:35.001Z,23.50
2018-09-14T10:51:41.283Z,23.38
2018-09-14T10:52:48.080Z,23.21
2018-09-14T10:53:54.381Z,23.03
2018-09-14T10:55:01.148Z,22.81
2018-09-14T10:56:07.921Z,22.43
2018-09-14T10:57:15.165Z,22.18
2018-09-14T10:58:21.931Z,22.12
2018-09-14T10:59:28.285Z,22.07
2018-09-14T11:00:34.911Z,22.00
2018-09-14T11:01:41.648Z,22.06
2018-09-14T11:02:48.396Z,22.12
2018-09-14T11:03:55.627Z,22.03
2018-09-14T11:05:01.870Z,22.10
2018-09-14T11:06:08.575Z,22.02
2018-09-14T11:07:15.301Z,21.94
2018-09-14T11:08:22.026Z,22.03
2018-09-14T11:09:29.248Z,22.30
2018-09-14T11:10:35.945Z,22.62
2018-09-14T11:11:42.724Z,22.81
2018-09-14T11:12:49.508Z,23.10
2018-09-14T11:13:55.695Z,23.38
2018-09-14T11:15:02.464Z,23.55
2018-09-14T11:16:09.216Z,23.84
2018-09-14T11:17:15.972Z,24.15
2018-09-14T11:18:23.226Z,24.40
2018-09-14T11:19:30.089Z,24.56
2018-09-14T11:20:36.451Z,24.32
2018-09-14T11:21:43.140Z,23.98
2018-09-14T11:22:50.010Z,23.91
2018-09-14T11:23:57.941Z,24.16
2018-09-14T11:25:03.946Z,24.50
2018-09-14T11:26:11.400Z,24.85
2018-09-14T11:27:18.480Z,25.17
2018-09-14T11:28:25.053Z,25.33
2018-09-14T11:29:32.346Z,25.55
2018-09-14T11:30:39.391Z,25.38
2018-09-14T11:31:47.097Z,25.36
2018-09-14T11:32:53.857Z,25.58
2018-09-14T11:34:01.151Z,25.86
2018-09-14T11:35:08.871Z,26.03
2018-09-14T11:36:15.652Z,26.15
2018-09-14T11:37:22.947Z,25.95
2018-09-14T11:38:30.223Z,25.79
2018-09-14T11:39:37.856Z,25.80
2018-09-14T11:40:44.585Z,25.75
2018-09-14T11:41:51.822Z,25.82
2018-09-14T11:42:59.049Z,25.36
2018-09-14T11:44:06.725Z,25.19
2018-09-14T11:45:13.453Z,25.15
2018-09-14T11:46:20.460Z,25.27
2018-09-14T11:47:28.059Z,25.28
2018-09-14T11:48:35.109Z,25.07
2018-09-14T11:49:42.091Z,25.07
2018-09-14T11:50:48.589Z,24.95
2018-09-14T11:51:55.564Z,24.91
2018-09-14T11:53:02.542Z,24.68
2018-09-14T11:54:09.684Z,24.45
2018-09-14T11:55:16.446Z,24.30
2018-09-14T11:56:23.369Z,24.18
2018-09-14T11:57:30.786Z,24.16
2018-09-14T11:58:37.212Z,24.29
2018-09-14T11:59:44.138Z,24.22
2018-09-14T12:00:51.542Z,23.87
2018-09-14T12:01:58.452Z,23.62
2018-09-14T12:03:04.850Z,23.55
2018-09-14T12:04:11.809Z,23.56
2018-09-14T12:05:18.640Z,23.37
2018-09-14T12:06:25.528Z,23.38
2018-09-14T12:07:32.404Z,23.41
2018-09-14T12:08:39.265Z,23.26
2018-09-14T12:09:46.138Z,23.21
2018-09-14T12:10:52.980Z,23.20
2018-09-14T12:12:00.328Z,23.24
2018-09-14T12:13:07.621Z,23.24
2018-09-14T12:14:14.020Z,23.32
2018-09-14T12:15:20.839Z,23.17
2018-09-14T12:16:27.698Z,22.92
2018-09-14T12:17:34.521Z,22.86
2018-09-14T12:18:40.856Z,22.85
2018-09-14T12:19:48.747Z,22.93
2018-09-14T12:20:54.665Z,23.04
2018-09-14T12:22:01.624Z,22.99
2018-09-14T12:23:09.040Z,22.90
2018-09-14T12:24:15.461Z,22.91
2018-09-14T12:25:24.329Z,23.13
2018-09-14T12:26:29.785Z,23.23
2018-09-14T12:27:36.285Z,23.33
2018-09-14T12:28:43.583Z,23.28
2018-09-14T12:29:50.466Z,23.15
2018-09-14T12:30:57.340Z,23.24
2018-09-14T12:32:03.718Z,23.35
2018-09-14T12:33:11.078Z,23.34
2018-09-14T12:34:17.440Z,23.40
2018-09-14T12:35:24.489Z,23.52
2018-09-14T12:36:31.665Z,23.57
2018-09-14T12:37:37.998Z,23.44
2018-09-14T12:38:44.880Z,23.36
2018-09-14T12:39:52.308Z,23.32
2018-09-14T12:40:59.185Z,23.27
2018-09-14T12:42:05.655Z,23.23
2018-09-14T12:43:12.613Z,23.01
2018-09-14T12:44:20.067Z,22.93
2018-09-14T12:45:26.553Z,23.06
2018-09-14T12:46:33.472Z,23.31
2018-09-14T12:47:40.419Z,23.48
2018-09-14T12:48:47.929Z,23.69
2018-09-14T12:49:54.326Z,23.63
2018-09-14T12:51:01.237Z,23.54
2018-09-14T12:52:09.653Z,23.50
2018-09-14T12:53:15.581Z,23.40
2018-09-14T12:54:21.985Z,23.28
2018-09-14T12:55:29.383Z,23.22
2018-09-14T12:56:35.756Z,23.22
2018-09-14T12:57:42.644Z,22.88
2018-09-14T12:58:49.515Z,22.89
2018-09-14T12:59:56.380Z,23.08
2018-09-14T13:01:03.220Z,23.26
2018-09-14T13:02:10.572Z,23.49
2018-09-14T13:03:16.953Z,23.67
2018-09-14T13:04:23.836Z,23.54
2018-09-14T13:05:31.093Z,23.59
2018-09-14T13:06:37.437Z,23.61
2018-09-14T13:07:44.249Z,23.63
2018-09-14T13:08:51.076Z,23.56
2018-09-14T13:09:57.902Z,23.42
2018-09-14T13:11:05.184Z,23.19
2018-09-14T13:12:11.990Z,22.97
2018-09-14T13:13:18.801Z,22.86
2018-09-14T13:14:25.122Z,22.64
2018-09-14T13:15:31.857Z,22.45
2018-09-14T13:16:40.568Z,22.33
2018-09-14T13:17:45.405Z,22.10
2018-09-14T13:18:52.153Z,21.94
2018-09-14T13:19:58.905Z,21.82
2018-09-14T13:21:06.606Z,21.84
2018-09-14T13:22:12.401Z,21.85
2018-09-14T13:23:19.157Z,21.84
2018-09-14T13:24:25.886Z,21.83
2018-09-14T13:25:32.600Z,21.83
2018-09-14T13:26:39.839Z,21.80
2018-09-14T13:27:46.541Z,21.76
2018-09-14T13:28:53.280Z,21.74
2018-09-14T13:29:59.966Z,21.76
2018-09-14T13:31:07.208Z,21.71
2018-09-14T13:32:13.399Z,21.63
2018-09-14T13:33:19.613Z,21.58
2018-09-14T13:34:26.803Z,21.52
2018-09-14T13:35:33.029Z,21.49
2018-09-14T13:36:39.737Z,21.60
2018-09-14T13:37:46.945Z,21.73
2018-09-14T13:38:53.628Z,21.85
2018-09-14T13:40:00.380Z,22.04
2018-09-14T13:41:07.058Z,22.26
2018-09-14T13:42:13.286Z,22.50
2018-09-14T13:43:20.495Z,22.72
2018-09-14T13:44:27.214Z,22.93
2018-09-14T13:45:33.941Z,23.03
2018-09-14T13:46:40.148Z,23.17
2018-09-14T13:47:46.872Z,23.24
2018-09-14T13:48:54.106Z,23.32
2018-09-14T13:50:00.853Z,23.38
2018-09-14T13:51:07.607Z,23.40
2018-09-14T13:52:14.411Z,23.34
2018-09-14T13:53:21.092Z,23.24
2018-09-14T13:54:27.810Z,23.10
2018-09-14T13:55:34.628Z,23.11
2018-09-14T13:56:40.806Z,23.11
2018-09-14T13:57:47.564Z,23.26
2018-09-14T13:58:54.328Z,23.40
2018-09-14T14:00:01.095Z,23.56
2018-09-14T14:01:07.874Z,23.65
2018-09-14T14:02:15.178Z,23.69
2018-09-14T14:03:21.430Z,23.73
2018-09-14T14:04:28.753Z,23.67
2018-09-14T14:05:35.010Z,23.58
2018-09-14T14:06:41.967Z,23.60
2018-09-14T14:07:49.043Z,23.68
2018-09-14T14:08:55.829Z,23.76
2018-09-14T14:10:02.642Z,23.82
2018-09-14T14:11:09.906Z,23.97
2018-09-14T14:12:15.689Z,24.04
2018-09-14T14:13:22.474Z,24.07
2018-09-14T14:14:29.752Z,24.20
2018-09-14T14:15:36.035Z,24.26
2018-09-14T14:16:43.414Z,24.03
2018-09-14T14:17:50.154Z,23.70